createdAt,value
2019-05-23T00:01:23.956Z,66.96
2019-05-23T00:04:21.936Z,66.98
2019-05-23T00:07:14.261Z,67.48
2019-05-23T00:10:04.319Z,67.78
2019-05-23T00:12:55.356Z,67.73
2019-05-23T00:15:42.654Z,67.52
2019-05-23T00:18:15.573Z,67.44
2019-05-23T00:20:47.629Z,67.61
2019-05-23T00:23:20.389Z,67.98
2019-05-23T00:25:53.981Z,68.24
2019-05-23T00:28:26.078Z,68.81
2019-05-23T00:31:02.385Z,68.87
2019-05-23T00:33:35.396Z,69.07
2019-05-23T00:36:07.639Z,69.22
2019-05-23T00:38:40.451Z,69.42
2019-05-23T00:41:13.874Z,69.62
2019-05-23T00:43:46.453Z,69.63
2019-05-23T00:46:19.914Z,68.94
2019-05-23T00:48:52.423Z,68.83
2019-05-23T00:51:26.070Z,69.19
2019-05-23T00:53:57.878Z,69.26
2019-05-23T00:56:30.137Z,69.11
2019-05-23T00:59:02.606Z,69.05
2019-05-23T01:01:37.835Z,69.77
2019-05-23T01:04:11.180Z,69.47
2019-05-23T01:06:44.610Z,69.50
2019-05-23T01:09:19.948Z,69.97
2019-05-23T01:11:51.776Z,70.27
2019-05-23T01:14:24.134Z,70.50
2019-05-23T01:16:56.562Z,69.95
2019-05-23T01:19:28.312Z,70.11
2019-05-23T01:22:02.009Z,70.34
2019-05-23T01:24:36.425Z,70.52
2019-05-23T01:27:09.401Z,70.65
2019-05-23T01:29:49.753Z,70.63
2019-05-23T01:32:53.367Z,70.59
2019-05-23T01:35:28.600Z,71.14
2019-05-23T01:38:04.185Z,70.64
2019-05-23T01:40:36.387Z,70.42
2019-05-23T01:43:09.712Z,70.60
2019-05-23T01:45:42.279Z,70.64
2019-05-23T01:48:15.645Z,70.23
2019-05-23T01:50:47.474Z,70.36
2019-05-23T01:53:19.729Z,70.92
2019-05-23T01:55:53.333Z,70.80
2019-05-23T01:58:25.336Z,70.63
2019-05-23T02:00:57.169Z,70.93
2019-05-23T02:03:29.459Z,71.29
2019-05-23T02:06:01.899Z,72.39
2019-05-23T02:08:35.599Z,72.34
2019-05-23T02:11:07.328Z,72.03
2019-05-23T02:13:40.765Z,71.86
2019-05-23T02:16:12.710Z,71.96
2019-05-23T02:18:45.439Z,72.42
2019-05-23T02:21:17.962Z,71.89
2019-05-23T02:23:50.385Z,71.75
2019-05-23T02:26:24.298Z,71.43
2019-05-23T02:28:56.261Z,70.64
2019-05-23T02:31:28.175Z,70.37
2019-05-23T02:34:00.515Z,70.22
2019-05-23T02:36:32.586Z,69.81
2019-05-23T02:39:38.827Z,69.88
2019-05-23T02:42:24.311Z,70.57
2019-05-23T02:44:57.075Z,70.25
2019-05-23T02:47:52.245Z,70.00
2019-05-23T02:50:32.728Z,70.63
2019-05-23T02:53:08.169Z,71.14
2019-05-23T02:55:40.894Z,72.06
2019-05-23T02:58:22.919Z,71.73
2019-05-23T03:01:28.347Z,71.64
2019-05-23T03:04:05.946Z,71.10
2019-05-23T03:06:38.323Z,70.68
2019-05-23T03:09:12.088Z,70.83
2019-05-23T03:11:49.454Z,70.33
2019-05-23T03:14:22.820Z,70.53
2019-05-23T03:16:54.616Z,71.06
2019-05-23T03:19:39.612Z,69.96
2019-05-23T03:22:45.109Z,69.61
2019-05-23T03:26:04.195Z,69.41
2019-05-23T03:28:40.401Z,69.09
2019-05-23T03:31:30.071Z,68.82
2019-05-23T03:33:55.034Z,68.95
2019-05-23T03:36:27.478Z,69.02
2019-05-23T03:38:59.428Z,68.87
2019-05-23T03:41:32.246Z,70.67
2019-05-23T03:44:05.144Z,70.34
2019-05-23T03:46:42.082Z,70.79
2019-05-23T03:49:15.186Z,70.35
2019-05-23T03:51:47.106Z,70.35
2019-05-23T03:54:19.282Z,70.50
2019-05-23T03:56:51.093Z,71.07
2019-05-23T03:59:24.565Z,71.37
2019-05-23T04:01:56.393Z,71.63
2019-05-23T04:04:28.277Z,71.03
2019-05-23T04:07:03.357Z,70.80
2019-05-23T04:09:35.109Z,70.13
2019-05-23T04:12:08.073Z,70.27
2019-05-23T04:14:41.778Z,70.35
2019-05-23T04:17:14.458Z,71.74
2019-05-23T04:19:48.527Z,71.99
2019-05-23T04:22:22.440Z,72.45
2019-05-23T04:24:54.198Z,72.76
2019-05-23T04:27:29.106Z,72.65
2019-05-23T04:30:04.043Z,72.40
2019-05-23T04:32:36.046Z,72.21
2019-05-23T04:35:09.574Z,71.93
2019-05-23T04:37:41.697Z,71.71
2019-05-23T04:40:17.720Z,71.71
2019-05-23T04:42:49.447Z,71.07
2019-05-23T04:45:21.671Z,70.93
2019-05-23T04:47:54.119Z,70.36
2019-05-23T04:50:25.910Z,70.41
2019-05-23T04:52:58.899Z,71.13
2019-05-23T04:55:30.694Z,71.94
2019-05-23T04:58:04.575Z,72.69
2019-05-23T05:00:36.220Z,72.89
2019-05-23T05:03:09.069Z,73.21
2019-05-23T05:05:41.318Z,73.62
2019-05-23T05:08:13.567Z,73.64
2019-05-23T05:10:47.590Z,73.75
2019-05-23T05:13:19.736Z,73.44
2019-05-23T05:15:53.243Z,73.27
2019-05-23T05:18:27.064Z,73.28
2019-05-23T05:21:00.441Z,73.23
2019-05-23T05:23:32.317Z,73.00
2019-05-23T05:26:04.210Z,72.88
2019-05-23T05:28:35.968Z,72.84
2019-05-23T05:31:07.681Z,72.41
2019-05-23T05:33:42.745Z,72.32
2019-05-23T05:36:14.472Z,72.55
2019-05-23T05:38:47.156Z,72.47
2019-05-23T05:41:18.891Z,72.44
2019-05-23T05:43:50.854Z,72.40
2019-05-23T05:46:23.969Z,72.61
2019-05-23T05:48:56.006Z,72.60
2019-05-23T05:51:28.335Z,72.73
2019-05-23T05:54:00.319Z,72.83
2019-05-23T05:56:32.156Z,72.81
2019-05-23T05:59:04.049Z,72.68
2019-05-23T06:01:39.113Z,72.39
2019-05-23T06:04:11.043Z,71.95
2019-05-23T06:06:50.243Z,71.44
2019-05-23T06:09:25.020Z,71.12
2019-05-23T06:11:56.905Z,71.11
2019-05-23T06:14:28.965Z,71.71
2019-05-23T06:17:01.646Z,71.60
2019-05-23T06:19:33.464Z,71.27
2019-05-23T06:22:05.760Z,70.26
2019-05-23T06:24:48.076Z,69.55
2019-05-23T06:27:14.824Z,67.94
2019-05-23T06:29:46.767Z,66.13
2019-05-23T06:32:21.482Z,61.96
2019-05-23T06:34:55.030Z,57.06
2019-05-23T06:37:27.712Z,55.94
2019-05-23T06:40:01.350Z,56.43
2019-05-23T06:42:33.225Z,56.09
2019-05-23T06:45:08.190Z,54.52
2019-05-23T06:47:40.887Z,53.96
2019-05-23T06:50:16.340Z,56.00
2019-05-23T06:52:50.907Z,58.00
2019-05-23T06:55:24.421Z,59.26
2019-05-23T06:57:56.170Z,60.17
2019-05-23T07:00:29.206Z,61.17
2019-05-23T07:03:01.561Z,60.47
2019-05-23T07:05:37.803Z,58.25
2019-05-23T07:08:09.580Z,53.18
2019-05-23T07:10:44.903Z,48.35
2019-05-23T07:13:19.897Z,45.57
2019-05-23T07:15:51.631Z,43.31
2019-05-23T07:18:24.854Z,42.05
2019-05-23T07:20:57.913Z,41.21
2019-05-23T07:23:29.744Z,40.92
2019-05-23T07:26:01.521Z,40.34
2019-05-23T07:28:33.325Z,40.22
2019-05-23T07:31:05.694Z,40.07
2019-05-23T07:33:37.964Z,42.58
2019-05-23T07:36:10.422Z,40.68
2019-05-23T07:38:42.197Z,39.61
2019-05-23T07:41:14.514Z,39.89
2019-05-23T07:43:46.274Z,39.64
2019-05-23T07:46:21.295Z,40.23
2019-05-23T07:48:53.796Z,38.49
2019-05-23T07:51:25.751Z,40.07
2019-05-23T07:54:05.021Z,41.31
2019-05-23T07:56:37.389Z,42.78
2019-05-23T07:59:10.160Z,43.76
2019-05-23T08:01:43.558Z,42.81
2019-05-23T08:04:21.871Z,41.75
2019-05-23T08:06:49.372Z,44.72
2019-05-23T08:09:22.662Z,46.98
2019-05-23T08:11:54.975Z,46.72
2019-05-23T08:14:29.193Z,47.11
2019-05-23T08:17:01.140Z,45.82
2019-05-23T08:19:48.480Z,46.43
2019-05-23T08:22:06.868Z,43.57
2019-05-23T08:24:38.607Z,42.26
2019-05-23T08:27:10.399Z,41.19
2019-05-23T08:29:42.494Z,40.15
2019-05-23T08:32:14.845Z,37.99
2019-05-23T08:34:46.882Z,39.36
2019-05-23T08:37:18.681Z,36.91
2019-05-23T08:39:50.384Z,35.08
2019-05-23T08:42:22.504Z,33.66
2019-05-23T08:44:55.719Z,33.63
2019-05-23T08:47:27.850Z,37.33
2019-05-23T08:50:00.011Z,35.68
2019-05-23T08:52:33.653Z,34.78
2019-05-23T08:55:17.510Z,33.78
2019-05-23T08:57:49.665Z,34.44
2019-05-23T09:00:22.087Z,32.95
2019-05-23T09:02:58.029Z,34.67
2019-05-23T09:05:30.781Z,33.16
2019-05-23T09:08:04.233Z,33.48
2019-05-23T09:10:36.421Z,31.78
2019-05-23T09:13:08.788Z,32.14
2019-05-23T09:15:40.719Z,31.61
2019-05-23T09:18:12.744Z,31.92
2019-05-23T09:20:44.764Z,31.09
2019-05-23T09:23:16.755Z,34.51
2019-05-23T09:25:48.501Z,34.57
2019-05-23T09:28:21.431Z,39.44
2019-05-23T09:30:54.929Z,39.05
2019-05-23T09:33:26.765Z,39.70
2019-05-23T09:35:59.266Z,35.15
2019-05-23T09:38:31.071Z,31.70
2019-05-23T09:41:02.821Z,33.97
2019-05-23T09:43:34.594Z,37.19
2019-05-23T09:46:06.446Z,39.43
2019-05-23T09:48:38.320Z,40.66
2019-05-23T09:51:11.895Z,38.20
2019-05-23T09:53:47.285Z,38.94
2019-05-23T09:56:17.179Z,38.36
2019-05-23T09:58:49.013Z,40.53
2019-05-23T10:01:21.537Z,42.69
2019-05-23T10:03:53.319Z,44.45
2019-05-23T10:06:28.109Z,46.34
2019-05-23T10:09:00.077Z,45.54
2019-05-23T10:11:31.896Z,46.52
2019-05-23T10:14:05.351Z,46.60
2019-05-23T10:16:39.272Z,44.38
2019-05-23T10:19:11.087Z,45.24
2019-05-23T10:21:42.861Z,44.19
2019-05-23T10:24:15.608Z,46.09
2019-05-23T10:26:47.368Z,45.78
2019-05-23T10:29:19.129Z,45.69
2019-05-23T10:31:50.901Z,44.93
2019-05-23T10:34:22.666Z,45.01
2019-05-23T10:36:56.041Z,47.21
2019-05-23T10:39:30.176Z,46.58
2019-05-23T10:42:03.782Z,46.33
2019-05-23T10:44:35.762Z,44.84
2019-05-23T10:47:07.495Z,43.83
2019-05-23T10:49:39.357Z,44.58
2019-05-23T10:52:11.118Z,45.98
2019-05-23T10:54:42.824Z,46.62
2019-05-23T10:57:14.687Z,45.37
2019-05-23T10:59:46.552Z,44.57
2019-05-23T11:02:19.857Z,45.65
2019-05-23T11:04:53.004Z,47.12
2019-05-23T11:07:25.959Z,48.20
2019-05-23T11:09:57.747Z,47.71
2019-05-23T11:12:29.727Z,45.09
2019-05-23T11:15:01.516Z,46.33
2019-05-23T11:17:35.702Z,47.51
2019-05-23T11:20:09.315Z,48.38
2019-05-23T11:22:41.046Z,47.57
2019-05-23T11:25:15.510Z,46.50
2019-05-23T11:27:49.047Z,45.01
2019-05-23T11:30:27.298Z,46.67
2019-05-23T11:32:59.731Z,45.96
2019-05-23T11:35:31.816Z,45.32
2019-05-23T11:38:03.623Z,44.46
2019-05-23T11:40:36.199Z,44.10
2019-05-23T11:43:07.902Z,42.41
2019-05-23T11:45:52.491Z,41.42
2019-05-23T11:48:27.784Z,42.83
2019-05-23T11:50:59.591Z,44.29
2019-05-23T11:53:31.638Z,42.63
2019-05-23T11:56:03.342Z,43.59
2019-05-23T11:58:35.131Z,44.27
2019-05-23T12:01:33.399Z,46.40
2019-05-23T12:04:15.569Z,46.23
2019-05-23T12:06:55.802Z,46.78
2019-05-23T12:09:26.984Z,47.52
2019-05-23T12:11:58.805Z,46.03
2019-05-23T12:14:30.966Z,47.13
2019-05-23T12:17:02.922Z,46.66
2019-05-23T12:19:34.758Z,46.62
2019-05-23T12:22:06.591Z,47.43
2019-05-23T12:24:38.575Z,47.67
2019-05-23T12:27:10.319Z,49.01
2019-05-23T12:29:42.176Z,48.35
2019-05-23T12:32:14.403Z,46.62
2019-05-23T12:35:08.145Z,44.29
2019-05-23T12:37:20.997Z,43.72
2019-05-23T12:39:53.632Z,44.77
2019-05-23T12:42:25.528Z,47.45
2019-05-23T12:44:57.240Z,47.70
2019-05-23T12:47:46.753Z,48.50
2019-05-23T12:50:22.238Z,47.64
2019-05-23T12:52:54.695Z,49.30
2019-05-23T12:55:26.415Z,48.16
2019-05-23T12:57:58.179Z,47.24
2019-05-23T13:00:47.418Z,45.45
2019-05-23T13:03:20.944Z,42.41
2019-05-23T13:05:53.502Z,42.89
2019-05-23T13:08:25.207Z,42.55
2019-05-23T13:10:56.971Z,43.86
2019-05-23T13:13:29.138Z,46.15
2019-05-23T13:16:00.928Z,46.81
2019-05-23T13:18:32.725Z,47.71
2019-05-23T13:21:04.921Z,48.65
2019-05-23T13:23:36.878Z,47.71
2019-05-23T13:26:08.780Z,43.18
2019-05-23T13:28:41.592Z,45.25
2019-05-23T13:31:13.345Z,43.61
2019-05-23T13:33:47.285Z,42.76
2019-05-23T13:36:19.015Z,42.97
2019-05-23T13:38:51.455Z,44.85
2019-05-23T13:41:24.825Z,44.35
2019-05-23T13:43:57.814Z,45.38
2019-05-23T13:46:29.578Z,45.75
2019-05-23T13:49:03.877Z,46.63
2019-05-23T13:51:35.819Z,45.68
2019-05-23T13:54:07.678Z,47.34
2019-05-23T13:56:39.394Z,45.70
2019-05-23T13:59:11.179Z,46.36
2019-05-23T14:01:44.038Z,44.60
2019-05-23T14:04:17.859Z,44.68
2019-05-23T14:06:49.887Z,44.46
2019-05-23T14:09:23.613Z,43.28
2019-05-23T14:12:19.935Z,42.46
2019-05-23T14:14:31.393Z,45.04
2019-05-23T14:17:21.811Z,45.72
2019-05-23T14:19:55.105Z,46.52
2019-05-23T14:22:27.542Z,42.58
2019-05-23T14:24:59.374Z,42.68
2019-05-23T14:27:50.308Z,41.30
2019-05-23T14:30:39.700Z,41.78
2019-05-23T14:33:26.020Z,41.49
2019-05-23T14:36:01.334Z,42.36
2019-05-23T14:38:36.324Z,43.30
2019-05-23T14:41:08.384Z,41.55
2019-05-23T14:43:42.436Z,41.21
2019-05-23T14:46:17.554Z,43.14
2019-05-23T14:49:07.762Z,43.04
2019-05-23T14:51:57.319Z,43.04
2019-05-23T14:54:40.349Z,41.52
2019-05-23T14:57:14.473Z,42.45
2019-05-23T14:59:46.810Z,42.58
2019-05-23T15:02:20.825Z,42.87
2019-05-23T15:04:52.604Z,42.22
2019-05-23T15:07:26.817Z,42.34
2019-05-23T15:09:58.572Z,41.84
2019-05-23T15:12:32.000Z,42.21
2019-05-23T15:15:06.954Z,43.05
2019-05-23T15:17:40.299Z,42.38
2019-05-23T15:20:13.413Z,42.44
2019-05-23T15:22:45.213Z,42.99
2019-05-23T15:25:17.156Z,43.15
2019-05-23T15:27:48.864Z,41.64
2019-05-23T15:30:20.679Z,42.64
2019-05-23T15:32:52.379Z,42.85
2019-05-23T15:35:26.388Z,43.43
2019-05-23T15:37:58.149Z,43.51
2019-05-23T15:40:32.731Z,43.96
2019-05-23T15:43:04.660Z,43.89
2019-05-23T15:45:36.532Z,44.23
2019-05-23T15:48:08.377Z,43.74
2019-05-23T15:50:47.848Z,42.87
2019-05-23T15:53:35.009Z,43.26
2019-05-23T15:56:26.702Z,43.22
2019-05-23T15:58:54.562Z,44.47
2019-05-23T16:01:34.951Z,44.29
2019-05-23T16:04:14.693Z,44.88
2019-05-23T16:06:48.081Z,44.23
2019-05-23T16:09:29.264Z,43.21
2019-05-23T16:11:54.867Z,43.60
2019-05-23T16:14:26.856Z,42.93
2019-05-23T16:16:58.806Z,43.16
2019-05-23T16:19:32.987Z,42.23
2019-05-23T16:22:05.347Z,43.89
2019-05-23T16:24:37.119Z,43.95
2019-05-23T16:27:10.457Z,44.59
2019-05-23T16:29:43.302Z,43.50
2019-05-23T16:32:15.073Z,44.00
2019-05-23T16:34:47.144Z,43.71
2019-05-23T16:37:19.268Z,43.65
2019-05-23T16:39:51.666Z,44.60
2019-05-23T16:42:23.503Z,45.35
2019-05-23T16:44:56.821Z,45.49
2019-05-23T16:47:28.999Z,45.80
2019-05-23T16:50:00.781Z,45.83
2019-05-23T16:52:32.672Z,46.02
2019-05-23T16:55:10.129Z,46.18
2019-05-23T16:57:55.120Z,44.91
2019-05-23T17:00:50.594Z,45.43
2019-05-23T17:03:41.316Z,44.37
2019-05-23T17:06:41.674Z,44.46
2019-05-23T17:09:34.751Z,44.35
2019-05-23T17:12:37.314Z,44.33
2019-05-23T17:15:17.152Z,44.50
2019-05-23T17:18:02.634Z,45.02
2019-05-23T17:20:53.313Z,45.01
2019-05-23T17:23:45.029Z,45.17
2019-05-23T17:26:26.322Z,45.35
2019-05-23T17:29:00.137Z,45.21
2019-05-23T17:31:35.597Z,45.75
2019-05-23T17:34:08.317Z,45.34
2019-05-23T17:36:41.580Z,45.47
2019-05-23T17:39:15.442Z,45.74
2019-05-23T17:41:48.865Z,46.18
2019-05-23T17:44:20.814Z,45.75
2019-05-23T17:46:52.623Z,45.91
2019-05-23T17:49:24.435Z,46.26
2019-05-23T17:51:57.907Z,46.17
2019-05-23T17:54:30.137Z,45.72
2019-05-23T17:57:02.278Z,45.64
2019-05-23T17:59:34.210Z,45.51
2019-05-23T18:02:07.498Z,46.24
2019-05-23T18:04:39.383Z,46.06
2019-05-23T18:07:13.184Z,46.42
2019-05-23T18:09:44.918Z,46.60
2019-05-23T18:12:18.371Z,46.18
2019-05-23T18:14:52.406Z,46.95
2019-05-23T18:17:24.181Z,47.51
2019-05-23T18:19:57.716Z,47.95
2019-05-23T18:22:30.136Z,48.47
2019-05-23T18:25:02.091Z,48.79
2019-05-23T18:27:34.172Z,49.33
2019-05-23T18:30:07.979Z,49.58
2019-05-23T18:32:40.605Z,50.08
2019-05-23T18:35:15.999Z,50.33
2019-05-23T18:37:49.601Z,50.41
2019-05-23T18:40:22.701Z,50.78
2019-05-23T18:42:54.495Z,50.99
2019-05-23T18:45:26.332Z,50.45
2019-05-23T18:47:58.521Z,50.95
2019-05-23T18:50:35.044Z,50.94
2019-05-23T18:53:08.486Z,52.20
2019-05-23T18:55:40.820Z,52.47
2019-05-23T18:58:12.823Z,52.54
2019-05-23T19:01:20.255Z,52.79
2019-05-23T19:03:52.121Z,52.87
2019-05-23T19:06:25.553Z,52.92
2019-05-23T19:08:57.367Z,53.44
2019-05-23T19:11:29.869Z,52.97
2019-05-23T19:14:01.641Z,52.93
2019-05-23T19:16:35.738Z,52.66
2019-05-23T19:19:07.509Z,52.87
2019-05-23T19:21:39.779Z,52.97
2019-05-23T19:24:13.421Z,53.56
2019-05-23T19:26:47.664Z,54.23
2019-05-23T19:29:19.834Z,54.70
2019-05-23T19:31:51.911Z,54.22
2019-05-23T19:34:23.907Z,54.35
2019-05-23T19:36:55.763Z,55.50
2019-05-23T19:39:28.039Z,54.84
2019-05-23T19:42:01.108Z,55.32
2019-05-23T19:44:34.524Z,56.24
2019-05-23T19:47:06.688Z,56.43
2019-05-23T19:49:39.084Z,56.14
2019-05-23T19:52:11.762Z,56.17
2019-05-23T19:54:43.674Z,56.70
2019-05-23T19:57:15.510Z,56.76
2019-05-23T19:59:47.286Z,57.43
2019-05-23T20:02:39.878Z,57.79
2019-05-23T20:05:20.468Z,58.66
2019-05-23T20:07:53.990Z,58.50
2019-05-23T20:10:26.670Z,58.82
2019-05-23T20:12:58.866Z,58.63
2019-05-23T20:15:30.806Z,58.97
2019-05-23T20:18:02.637Z,58.24
2019-05-23T20:20:35.497Z,58.13
2019-05-23T20:23:08.505Z,58.13
2019-05-23T20:25:40.458Z,58.14
2019-05-23T20:28:12.344Z,58.06
2019-05-23T20:30:54.537Z,58.13
2019-05-23T20:33:30.850Z,58.00
2019-05-23T20:36:04.813Z,58.14
2019-05-23T20:38:37.241Z,57.76
2019-05-23T20:41:11.046Z,57.17
2019-05-23T20:43:44.945Z,57.50
2019-05-23T20:46:18.620Z,57.78
2019-05-23T20:48:52.054Z,57.83
2019-05-23T20:51:25.232Z,58.25
2019-05-23T20:53:57.345Z,57.74
2019-05-23T20:56:29.751Z,58.18
2019-05-23T20:59:01.576Z,58.07
2019-05-23T21:01:37.376Z,58.84
2019-05-23T21:04:09.202Z,58.86
2019-05-23T21:06:41.034Z,59.05
2019-05-23T21:09:15.817Z,59.58
2019-05-23T21:11:48.269Z,60.03
2019-05-23T21:14:21.753Z,61.04
2019-05-23T21:16:55.155Z,60.91
2019-05-23T21:19:28.567Z,60.63
2019-05-23T21:22:00.341Z,61.10
2019-05-23T21:24:33.296Z,61.41
2019-05-23T21:27:05.077Z,61.51
2019-05-23T21:29:38.146Z,61.76
2019-05-23T21:32:11.652Z,61.85
2019-05-23T21:34:45.039Z,62.28
2019-05-23T21:37:17.959Z,62.36
2019-05-23T21:39:49.881Z,62.54
2019-05-23T21:42:21.616Z,63.17
2019-05-23T21:44:53.369Z,63.35
2019-05-23T21:47:25.242Z,63.30
2019-05-23T21:49:57.005Z,63.63
2019-05-23T21:52:30.459Z,63.68
2019-05-23T21:55:02.242Z,63.71
2019-05-23T21:57:35.410Z,63.70
2019-05-23T22:00:10.481Z,63.74
2019-05-23T22:02:44.246Z,64.10
2019-05-23T22:05:17.639Z,63.91
2019-05-23T22:07:49.450Z,64.06
2019-05-23T22:10:23.812Z,64.60
2019-05-23T22:13:03.966Z,64.80
2019-05-23T22:15:37.393Z,64.79
2019-05-23T22:18:09.259Z,65.45
2019-05-23T22:20:41.093Z,65.12
2019-05-23T22:23:12.859Z,65.29
2019-05-23T22:25:46.211Z,65.24
2019-05-23T22:28:18.139Z,65.15
2019-05-23T22:30:50.022Z,65.51
2019-05-23T22:33:24.048Z,65.80
2019-05-23T22:35:56.339Z,65.87
2019-05-23T22:38:28.094Z,65.68
2019-05-23T22:41:01.454Z,66.11
2019-05-23T22:43:33.258Z,65.99
2019-05-23T22:46:06.707Z,65.87
2019-05-23T22:48:38.502Z,66.17
2019-05-23T22:51:11.961Z,66.19
2019-05-23T22:53:43.678Z,66.10
2019-05-23T22:56:15.602Z,66.57
2019-05-23T22:58:47.338Z,66.98
2019-05-23T23:01:19.239Z,66.57
2019-05-23T23:03:50.970Z,66.77
2019-05-23T23:06:24.847Z,66.65
2019-05-23T23:08:59.695Z,67.08
2019-05-23T23:11:35.405Z,66.63
2019-05-23T23:14:08.750Z,66.79
2019-05-23T23:19:29.235Z,66.94
2019-05-23T23:22:00.955Z,66.97
2019-05-23T23:24:34.165Z,66.87
2019-05-23T23:27:08.406Z,66.89
2019-05-23T23:29:40.205Z,67.19
2019-05-23T23:32:13.808Z,67.48
2019-05-23T23:34:47.797Z,68.09
2019-05-23T23:37:24.159Z,68.57
2019-05-23T23:39:57.628Z,68.36
2019-05-23T23:42:29.389Z,68.08
2019-05-23T23:45:18.564Z,67.94
2019-05-23T23:48:08.848Z,68.09
2019-05-23T23:53:50.108Z,68.43
2019-05-23T23:56:41.124Z,68.68
2019-05-23T23:59:13.394Z,68.72
